Cristian Pascual

Chefscout - Leganés
28 Nov 2027
Sonntag
Verarbeitung

Persönlichkeit

Anpassungsfähigkeit (2) Ehrgeiz (19) Kontroverse (3) Loyalität (15) Druck (1) Professionalität (16) Fairness (1) Temperament (10)

Profil

Trainerstil Demokratisch
Lizenz Nationale B
Entschlossenheit 12
Menschenführung 12
Motivation 5
Disziplin 5
Arbeitszufriedenheit
100%
Ermüdung
0%
Rolle Chefscout
Gehalt 40.9K p/W
Vertrag 14.03.2030

Leistung

Verhalten Gut
Trainingseffektivität
43%
Spielerentwicklung
40%
Verletzungsprävention
30%
Taktische Umsetzung
60%

Letzte Ereignisse

Geburtstag 35T her

Aktuell beobachtet

148
Spieler Verein Status Fähigkeit Vertrauen Beobachtet Zuletzt beobachtet Letzte Stimme
Dylan Gorosito Boca Juniors Aktiv 110 / 116 40% 2 31.08.2027 -
Manuel Lopez Valledupar Aktiv 103 / 110 40% 3 31.08.2027 -
Hosea Michael Remo Stars Aktiv 90 / 96 40% 2 31.08.2027 -
Mbekezeli Mbokazi Chicago Fire Aktiv 132 / 133 40% 5 30.08.2027 -
Wilmar Borja La Equidad Aktiv 95 / 112 40% 2 30.08.2027 -
Marvelous Freedom Ikorodu City Aktiv 90 / 90 40% 1 30.08.2027 -
Kaick FC Dallas Aktiv 110 / 118 40% 2 27.08.2027 -
Afriyie Sulemana Hasaacas Aktiv 96 / 104 40% 3 27.08.2027 -
Victor Martinez Atletico Venezuela Aktiv 94 / 87 40% 1 27.08.2027 -
Gideon Manaseh Ikorodu City Aktiv 85 / 98 40% 2 26.08.2027 -
Rafael Vargas Cortulua Aktiv 88 / 95 40% 1 26.08.2027 -
Victor Ehibe Ikorodu City Aktiv 93 / 89 40% 1 26.08.2027 -
Felipe Faúndez O'Higgins Aktiv 105 / 114 40% 2 25.08.2027 -
Jose Rodriguez La Equidad Aktiv 89 / 97 40% 1 25.08.2027 -
Martín Jiménez Audax Italiano Aktiv 104 / 110 40% 1 23.08.2027 -
Teo Rodríguez Pagano San Lorenzo Aktiv 122 / 114 40% 1 22.08.2027 -
Juan Diego Perdomo Depor Aktiv 87 / 90 40% 1 22.08.2027 -
Nazareno Roselli Defensa y Justicia Aktiv 114 / 119 40% 6 21.08.2027 -
Adrian Skogmar Malmo FF Aktiv 106 / 127 40% 1 21.08.2027 -
Elias Baum Eintracht Frankfurt Aktiv 135 / 131 40% 1 21.08.2027 -
Facundo Balatti Penarol Aktiv 100 / 113 40% 1 18.08.2027 -
Alessandro Ventre Vis Pesaro Aktiv 93 / 102 40% 1 18.08.2027 -
Ignacio Fernández Boston River Aktiv 92 / 107 40% 4 17.08.2027 -
Mattia Mannini Juve Stabia Aktiv 116 / 127 40% 1 17.08.2027 -
Juan Morán Godoy Cruz Aktiv 110 / 119 40% 2 15.08.2027 -
Sascha Britschgi Fiorentina Aktiv 120 / 123 40% 1 15.08.2027 -
Thiago Helguera Braga Aktiv 120 / 126 40% 1 14.08.2027 -
Sebastián Caballero Barranquilla Aktiv 84 / 90 40% 1 14.08.2027 -
Simone Kosijer Triestina Aktiv 99 / 110 40% 3 13.08.2027 -
Lucas Barrientos Los Andes Aktiv 105 / 103 40% 1 13.08.2027 -
Charlie Gray Córdoba Aktiv 89 / 108 40% 1 13.08.2027 -
Zizo Al Ahly Aktiv 131 / 141 40% 4 10.08.2027 -
Yasuto Wakizaka Kawasaki Frontale Aktiv 134 / 130 40% 4 10.08.2027 -
Kady Borges Qarabag Aktiv 137 / 125 40% 1 10.08.2027 -
Tatsuya Ito Kawasaki Frontale Aktiv 133 / 130 40% 5 09.08.2027 -
Juan Otero Gijón Aktiv 134 / 136 40% 5 09.08.2027 -
William Cruzeiro Aktiv 143 / 140 40% 3 09.08.2027 -
Florian Grillitsch Frosinone Aktiv 133 / 140 40% 1 08.08.2027 -
José Arnáiz Granada Aktiv 140 / 138 40% 1 08.08.2027 -
Diogo Gonçalves Konyaspor Aktiv 141 / 141 40% 1 08.08.2027 -
Toma Bašić Venezia Aktiv 137 / 142 40% 5 07.08.2027 -
Jesper Karlström Udinese Aktiv 139 / 134 40% 2 07.08.2027 -
Mërgim Vojvoda Udinese Aktiv 142 / 138 40% 1 05.08.2027 -
Jean Lucas Bahia Aktiv 136 / 137 40% 2 04.08.2027 -
Thierry Rendall Correia Venezia Aktiv 143 / 146 40% 2 04.08.2027 -
Suat Serdar Hellas Verona Aktiv 131 / 137 40% 1 03.08.2027 -
Amath N'Diaye Valladolid Aktiv 130 / 128 40% 1 03.08.2027 -
Ricardo Mangas Sporting CP Aktiv 135 / 138 40% 1 03.08.2027 -
Nikola Moro Bologna Aktiv 141 / 137 40% 1 02.08.2027 -
Valentin Rongier Stade Rennais Aktiv 150 / 147 40% 2 01.08.2027 -
Moses Simon Paris FC Aktiv 136 / 143 40% 1 01.08.2027 -
Martim Cunha Porto Aktiv 102 / 107 40% 3 31.07.2027 -
Patrick Berg Bodo/Glimt Aktiv 135 / 136 40% 2 31.07.2027 -
Marwan Ateya Al Ahly Aktiv 127 / 141 40% 1 31.07.2027 -
Davide Calabria Panathinaikos Aktiv 134 / 149 40% 3 29.07.2027 -
Sandi Lovrić Hellas Verona Aktiv 145 / 144 40% 3 29.07.2027 -
Djibril Sow Genoa Aktiv 134 / 143 40% 1 29.07.2027 -
Alfredo Quintero La Equidad Aktiv 142 / 124 40% 4 28.07.2027 -
Lukáš Provod Slavia Prague Aktiv 146 / 148 40% 2 27.07.2027 -
Andrija Živković PAOK Aktiv 137 / 152 40% 3 25.07.2027 -
Otar Kiteishvili Sturm Graz Aktiv 143 / 137 40% 2 23.07.2027 -
Facundo Pellistri Panathinaikos Aktiv 137 / 133 40% 3 22.07.2027 -
Matthieu Udol RC Lens Aktiv 144 / 142 40% 1 22.07.2027 -
Matheus Pereira Cruzeiro Aktiv 149 / 147 40% 2 21.07.2027 -
Domagoj Bradarić Hellas Verona Aktiv 137 / 141 40% 1 19.07.2027 -
Manu García Aris Thessaloniki Aktiv 131 / 140 40% 1 19.07.2027 -
Philip Billing FC Midtjylland Aktiv 128 / 125 40% 2 17.07.2027 -
Mario Pašalić Atalanta Aktiv 148 / 145 40% 1 17.07.2027 -
Lukáš Sadílek Gornik Zabrze Aktiv 127 / 131 40% 1 17.07.2027 -
Baptiste Santamaria PAOK Aktiv 133 / 144 40% 1 16.07.2027 -
Ianis Ratiu Astra Aktiv 151 / 131 40% 2 14.07.2027 -
Mohamed Bolivar Barranquilla Verloren 82 / 98 40% 1 14.07.2027 -
David Douděra Slavia Prague Aktiv 132 / 134 40% 1 14.07.2027 -
Arjan Malić Sturm Graz Aktiv 126 / 119 40% 4 11.07.2027 -
Gonzalo Piovi Cruz Azul Aktiv 127 / 137 40% 2 11.07.2027 -
Hany Mukhtar Nashville SC Aktiv 126 / 136 40% 1 11.07.2027 -
Iqraam Rayners Mamelodi Sundowns Aktiv 130 / 127 40% 1 11.07.2027 -
Agustín Palavecino Cruz Azul Aktiv 133 / 143 40% 2 08.07.2027 -
Andrija Bulatović RC Lens Aktiv 130 / 126 40% 2 07.07.2027 -
Ibrahim Coulibaly Clermont Foot Aktiv 113 / 116 40% 1 05.07.2027 -
Jhoan Pinto Union Magdalena Aktiv 93 / 82 40% 1 05.07.2027 -
Vasco Santos Oliveirense Aktiv 91 / 97 40% 3 03.07.2027 -
Tiago Freitas Benfica Aktiv 117 / 113 40% 2 03.07.2027 -
Hlompho Billiat Free State Stars Aktiv 100 / 102 40% 4 01.07.2027 -
Milan Roganović Partizan Aktiv 106 / 126 40% 3 01.07.2027 -
Ángel Peñaranda Mineros de Guayana Aktiv 86 / 100 40% 1 01.07.2027 -
Mikhail Ryadno Baltika Aktiv 98 / 106 40% 2 30.06.2027 -
Marco Oroná Antofagasta Aktiv 104 / 97 40% 3 30.06.2027 -
Ezra Mayers West Ham United Aktiv 120 / 129 40% 2 30.06.2027 -
Musa Danjuma Hatayspor Aktiv 96 / 92 40% 2 29.06.2027 -
Fabián Correa Barranquilla Aktiv 90 / 96 40% 1 29.06.2027 -
Juan Giménez Athletic Bilbao Aktiv 113 / 119 40% 1 28.06.2027 -
Marius Courcoul Olympique de Marseille Aktiv 113 / 122 40% 1 28.06.2027 -
Yassine Khalifi Charleroi Aktiv 104 / 116 40% 2 27.06.2027 -
Denys Smetana Inhulets Aktiv 89 / 108 40% 1 27.06.2027 -
Axel Cabellos Cesar Vallejo Aktiv 79 / 83 40% 1 23.06.2027 -
Mauricio Amaro Atlanta United FC Aktiv 127 / 128 40% 1 21.06.2027 -
Ryan Gauld Vancouver Whitecaps Aktiv 126 / 134 40% 1 21.06.2027 -
Oleksandr Zinchenko Dynamo Kyiv Aktiv 147 / 153 40% 1 21.06.2027 -
Mohamed Elyounoussi FC Copenhagen Aktiv 145 / 132 40% 1 20.06.2027 -
Juan Brunetta Tigres Aktiv 138 / 135 40% 1 19.06.2027 -
Ryan Yates Nottingham Forest Aktiv 139 / 142 40% 1 19.06.2027 -
Luis Milla Como Aktiv 147 / 150 40% 1 19.06.2027 -
Esteban de Lima Tacuarembo Aktiv 95 / 100 40% 1 18.06.2027 -
José Pachuca Puebla Aktiv 103 / 110 40% 1 16.06.2027 -
Olalekan Adeleke Remo Stars Aktiv 89 / 96 40% 1 16.06.2027 -
Santiago Vega Veracruz Aktiv 158 / 159 40% 1 14.06.2027 -
Mandla Mothiba Free State Stars Aktiv 94 / 106 40% 1 11.06.2027 -
Godwin Oham Warri Wolves Aktiv 88 / 89 40% 1 10.06.2027 -
Fredrik Sjøvold Bodo/Glimt Aktiv 126 / 134 40% 1 10.06.2027 -
Ryan Christie Bournemouth Aktiv 144 / 147 40% 1 10.06.2027 -
Facundo Di Biasi Gimnasia La Plata Aktiv 118 / 123 40% 1 08.06.2027 -
Yuma Suzuki Kashima Antlers Aktiv 134 / 137 40% 1 08.06.2027 -
Lucas Velásquez Huachipato Aktiv 95 / 106 40% 1 04.06.2027 -
Iker Benito Queretaro Abgelehnt 123 / 130 40% 3 31.01.2027 Ablehnen
Juninho Pumas UNAM Abgelehnt 138 / 125 40% 2 31.01.2027 Mehr Infos nötig
Juan Rodríguez Cagliari Abgelehnt 114 / 121 40% 1 31.01.2027 Mehr Infos nötig
Lucas Acosta Pumas UNAM Aktiv 106 / 103 40% 1 29.01.2027 -
Patrick Maswanganyi Orlando Pirates Aktiv 122 / 119 40% 1 29.01.2027 -
Adalberto Carrasquilla Pumas UNAM Aktiv 130 / 129 40% 1 27.01.2027 -
Jorge Sánchez Atlas Aktiv 133 / 137 40% 1 27.01.2027 -
Orbelín Pineda Monterrey Aktiv 135 / 130 40% 1 26.01.2027 -
Nicolás Castro Toluca Aktiv 125 / 122 40% 1 25.01.2027 -
Luis Romo Guadalajara Aktiv 135 / 143 40% 1 25.01.2027 -
Fran Villalba Santos Laguna Aktiv 124 / 110 40% 1 25.01.2027 -
Luís Esteves Atlas Aktiv 121 / 124 40% 1 24.01.2027 -
Ramiro Sordo Santos Laguna Aktiv 131 / 122 40% 1 22.01.2027 -
Víctor Guzmán Toluca Aktiv 129 / 130 40% 1 22.01.2027 -
Jesús Garza Tigres Aktiv 118 / 119 40% 1 21.01.2027 -
Kevin Palacios Santos Laguna Aktiv 121 / 106 40% 1 21.01.2027 -
Jhojan Julio Queretaro Aktiv 123 / 111 40% 1 20.01.2027 -
Rubén Duarte Pumas UNAM Aktiv 127 / 134 40% 1 19.01.2027 -
Adonis Preciado Tijuana Aktiv 131 / 112 40% 1 19.01.2027 -
Kyriani Sabbe Club Brugge Aktiv 115 / 132 40% 1 19.01.2027 -
Álex Calvo Andorra Abgelehnt 105 / 117 72% 1 18.01.2027 Ablehnen
Mathieu Brun Chamois Niortais Aktiv 122 / 128 40% 1 18.01.2027 -
Santiago Fernández Talleres Aktiv 126 / 116 40% 5 10.01.2027 -
Ignacio Perruzzi San Lorenzo Aktiv 114 / 118 40% 2 06.01.2027 -
Bahmed Deuff FC Metz Aktiv 106 / 118 40% 1 02.01.2027 -
Brandon Khela Peterborough United Aktiv 95 / 95 40% 1 01.01.2027 -
Ramiro Buratti River Plate Aktiv 88 / 104 40% 1 31.08.2026 Mehr Infos nötig
Lorenzo Couture Penarol Aktiv 104 / 96 40% 1 22.08.2026 -
Thiago Omar Pérez Huracán Aktiv 97 / 89 40% 1 20.08.2026 -
Agustín Obregón River Plate Aktiv 110 / 118 40% 1 20.08.2026 -
Ramiro Paunero Atlético Tucumán Aktiv 92 / 102 40% 1 20.08.2026 -
Lautaro Vazquez Defensa y Justicia Aktiv 82 / 110 40% 1 19.08.2026 -
Diogo Bagüí Tijuana Aktiv 97 / 125 40% 1 18.08.2026 -
Joaquín Papaleo Gimnasia y Tiro Aktiv 109 / 101 40% 1 01.08.2026 -